sensor_id;sensor_type;location;lat;lon;timestamp;pressure;altitude;pressure_sealevel;temperature;humidity
8705;BME280;4389;41.932;25.904;2022-09-09T00:00:19;100715.94;;;18.90;73.42
8705;BME280;4389;41.932;25.904;2022-09-09T00:02:54;100721.69;;;18.88;74.23
8705;BME280;4389;41.932;25.904;2022-09-09T00:05:28;100714.38;;;18.82;74.01
8705;BME280;4389;41.932;25.904;2022-09-09T00:07:59;100711.22;;;18.92;73.85
8705;BME280;4389;41.932;25.904;2022-09-09T00:10:31;100715.28;;;18.88;74.17
8705;BME280;4389;41.932;25.904;2022-09-09T00:13:06;100708.63;;;18.84;74.34
8705;BME280;4389;41.932;25.904;2022-09-09T00:15:49;100710.66;;;18.83;74.68
8705;BME280;4389;41.932;25.904;2022-09-09T00:18:24;100712.41;;;18.76;75.13
8705;BME280;4389;41.932;25.904;2022-09-09T00:20:58;100709.09;;;18.74;75.28
8705;BME280;4389;41.932;25.904;2022-09-09T00:23:31;100702.69;;;18.75;75.13
8705;BME280;4389;41.932;25.904;2022-09-09T00:26:07;100701.38;;;18.71;75.56
8705;BME280;4389;41.932;25.904;2022-09-09T00:28:39;100712.03;;;18.78;75.26
8705;BME280;4389;41.932;25.904;2022-09-09T00:31:13;100717.59;;;18.77;75.85
8705;BME280;4389;41.932;25.904;2022-09-09T00:33:42;100718.31;;;18.71;76.24
8705;BME280;4389;41.932;25.904;2022-09-09T00:36:13;100732.19;;;18.75;75.82
8705;BME280;4389;41.932;25.904;2022-09-09T00:38:43;100741.19;;;18.82;75.77
8705;BME280;4389;41.932;25.904;2022-09-09T00:41:18;100749.53;;;18.87;75.75
8705;BME280;4389;41.932;25.904;2022-09-09T00:43:55;100744.63;;;18.90;75.45
8705;BME280;4389;41.932;25.904;2022-09-09T00:46:51;100741.09;;;18.89;75.70
8705;BME280;4389;41.932;25.904;2022-09-09T00:49:31;100729.81;;;18.80;76.32
8705;BME280;4389;41.932;25.904;2022-09-09T00:52:11;100731.56;;;18.73;76.39
8705;BME280;4389;41.932;25.904;2022-09-09T00:54:49;100725.03;;;18.67;77.14
8705;BME280;4389;41.932;25.904;2022-09-09T00:57:26;100717.56;;;18.63;77.21
8705;BME280;4389;41.932;25.904;2022-09-09T00:59:59;100715.41;;;18.58;78.08
8705;BME280;4389;41.932;25.904;2022-09-09T01:02:35;100714.53;;;18.66;78.08
8705;BME280;4389;41.932;25.904;2022-09-09T01:05:13;100716.91;;;18.61;77.89
8705;BME280;4389;41.932;25.904;2022-09-09T01:07:47;100718.19;;;18.65;77.63
8705;BME280;4389;41.932;25.904;2022-09-09T01:10:25;100720.59;;;18.60;78.17
8705;BME280;4389;41.932;25.904;2022-09-09T01:12:58;100731.69;;;18.57;78.39
8705;BME280;4389;41.932;25.904;2022-09-09T01:15:31;100731.41;;;18.52;78.69
8705;BME280;4389;41.932;25.904;2022-09-09T01:18:02;100720.94;;;18.57;78.99
8705;BME280;4389;41.932;25.904;2022-09-09T01:20:39;100719.44;;;18.40;79.53
8705;BME280;4389;41.932;25.904;2022-09-09T01:23:29;100724.97;;;18.38;79.87
8705;BME280;4389;41.932;25.904;2022-09-09T01:26:18;100726.75;;;18.46;80.12
8705;BME280;4389;41.932;25.904;2022-09-09T01:28:47;100729.28;;;18.62;78.94
8705;BME280;4389;41.932;25.904;2022-09-09T01:31:19;100734.81;;;18.60;79.06
8705;BME280;4389;41.932;25.904;2022-09-09T01:33:46;100733.00;;;18.61;79.15
8705;BME280;4389;41.932;25.904;2022-09-09T01:36:18;100737.78;;;18.51;79.38
8705;BME280;4389;41.932;25.904;2022-09-09T01:38:46;100739.44;;;18.52;79.85
8705;BME280;4389;41.932;25.904;2022-09-09T01:41:14;100742.41;;;18.57;79.70
8705;BME280;4389;41.932;25.904;2022-09-09T01:43:41;100743.97;;;18.51;79.93
8705;BME280;4389;41.932;25.904;2022-09-09T01:46:09;100753.56;;;18.46;79.71
8705;BME280;4389;41.932;25.904;2022-09-09T01:48:36;100750.88;;;18.46;80.45
8705;BME280;4389;41.932;25.904;2022-09-09T01:51:03;100744.50;;;18.47;80.55
8705;BME280;4389;41.932;25.904;2022-09-09T01:53:30;100749.56;;;18.42;80.65
8705;BME280;4389;41.932;25.904;2022-09-09T01:56:04;100744.28;;;18.34;81.09
8705;BME280;4389;41.932;25.904;2022-09-09T01:58:45;100744.91;;;18.36;80.62
8705;BME280;4389;41.932;25.904;2022-09-09T02:01:21;100748.63;;;18.27;81.31
8705;BME280;4389;41.932;25.904;2022-09-09T02:03:53;100753.84;;;18.28;81.57
8705;BME280;4389;41.932;25.904;2022-09-09T02:06:29;100755.84;;;18.34;81.20
8705;BME280;4389;41.932;25.904;2022-09-09T02:09:00;100756.00;;;18.33;81.57
8705;BME280;4389;41.932;25.904;2022-09-09T02:11:29;100759.31;;;18.35;81.05
8705;BME280;4389;41.932;25.904;2022-09-09T02:14:01;100756.78;;;18.41;81.19
8705;BME280;4389;41.932;25.904;2022-09-09T02:16:33;100757.38;;;18.21;81.79
8705;BME280;4389;41.932;25.904;2022-09-09T02:19:10;100751.44;;;18.11;82.30
8705;BME280;4389;41.932;25.904;2022-09-09T02:21:39;100754.88;;;17.97;82.83
8705;BME280;4389;41.932;25.904;2022-09-09T02:24:09;100755.41;;;17.92;82.60
8705;BME280;4389;41.932;25.904;2022-09-09T02:26:39;100754.13;;;17.80;83.11
8705;BME280;4389;41.932;25.904;2022-09-09T02:29:13;100753.81;;;17.75;83.57
8705;BME280;4389;41.932;25.904;2022-09-09T02:31:41;100749.66;;;17.65;84.28
8705;BME280;4389;41.932;25.904;2022-09-09T02:34:11;100754.41;;;17.55;84.70
8705;BME280;4389;41.932;25.904;2022-09-09T02:36:41;100754.41;;;17.55;84.15
8705;BME280;4389;41.932;25.904;2022-09-09T02:39:10;100746.09;;;17.34;85.42
8705;BME280;4389;41.932;25.904;2022-09-09T02:41:40;100743.94;;;17.37;85.45
8705;BME280;4389;41.932;25.904;2022-09-09T02:44:11;100745.44;;;17.40;85.48
8705;BME280;4389;41.932;25.904;2022-09-09T02:46:55;100737.03;;;17.51;84.96
8705;BME280;4389;41.932;25.904;2022-09-09T02:49:37;100738.25;;;17.32;86.06
8705;BME280;4389;41.932;25.904;2022-09-09T02:52:08;100735.78;;;17.15;87.39
8705;BME280;4389;41.932;25.904;2022-09-09T02:54:38;100739.03;;;16.94;89.31
8705;BME280;4389;41.932;25.904;2022-09-09T02:57:10;100739.50;;;16.98;88.84
8705;BME280;4389;41.932;25.904;2022-09-09T02:59:39;100735.53;;;16.86;88.80
8705;BME280;4389;41.932;25.904;2022-09-09T03:02:07;100732.88;;;16.62;89.51
8705;BME280;4389;41.932;25.904;2022-09-09T03:04:37;100724.38;;;16.50;89.83
8705;BME280;4389;41.932;25.904;2022-09-09T03:07:04;100731.56;;;16.42;90.25
8705;BME280;4389;41.932;25.904;2022-09-09T03:09:31;100724.53;;;16.41;90.93
8705;BME280;4389;41.932;25.904;2022-09-09T03:11:59;100728.00;;;16.33;91.00
8705;BME280;4389;41.932;25.904;2022-09-09T03:14:26;100730.91;;;16.40;90.99
8705;BME280;4389;41.932;25.904;2022-09-09T03:16:54;100721.22;;;16.47;90.36
8705;BME280;4389;41.932;25.904;2022-09-09T03:19:21;100726.91;;;16.52;90.30
8705;BME280;4389;41.932;25.904;2022-09-09T03:21:48;100727.88;;;16.43;90.65
8705;BME280;4389;41.932;25.904;2022-09-09T03:24:15;100720.88;;;16.42;90.54
8705;BME280;4389;41.932;25.904;2022-09-09T03:26:42;100715.88;;;16.39;90.65
8705;BME280;4389;41.932;25.904;2022-09-09T03:29:10;100716.38;;;16.42;90.44
8705;BME280;4389;41.932;25.904;2022-09-09T03:31:39;100718.84;;;16.44;90.89
8705;BME280;4389;41.932;25.904;2022-09-09T03:34:07;100715.53;;;16.42;91.25
8705;BME280;4389;41.932;25.904;2022-09-09T03:36:34;100706.19;;;16.38;91.24
8705;BME280;4389;41.932;25.904;2022-09-09T03:39:01;100708.88;;;16.38;90.98
8705;BME280;4389;41.932;25.904;2022-09-09T03:41:29;100707.84;;;16.31;90.99
8705;BME280;4389;41.932;25.904;2022-09-09T03:43:56;100713.34;;;16.21;91.16
8705;BME280;4389;41.932;25.904;2022-09-09T03:46:24;100712.97;;;16.00;92.51
8705;BME280;4389;41.932;25.904;2022-09-09T03:48:52;100715.31;;;16.03;92.63
8705;BME280;4389;41.932;25.904;2022-09-09T03:51:20;100712.47;;;16.05;91.83
8705;BME280;4389;41.932;25.904;2022-09-09T03:53:47;100715.16;;;16.13;91.89
8705;BME280;4389;41.932;25.904;2022-09-09T03:56:14;100710.31;;;16.16;91.62
8705;BME280;4389;41.932;25.904;2022-09-09T03:58:41;100715.16;;;16.29;91.36
8705;BME280;4389;41.932;25.904;2022-09-09T04:01:11;100710.81;;;16.20;91.10
8705;BME280;4389;41.932;25.904;2022-09-09T04:03:39;100711.47;;;16.14;92.01
8705;BME280;4389;41.932;25.904;2022-09-09T04:06:08;100707.44;;;16.02;92.85
8705;BME280;4389;41.932;25.904;2022-09-09T04:08:37;100705.63;;;15.94;93.02
8705;BME280;4389;41.932;25.904;2022-09-09T04:11:07;100714.16;;;16.06;92.55
8705;BME280;4389;41.932;25.904;2022-09-09T04:13:34;100718.47;;;16.23;92.11
8705;BME280;4389;41.932;25.904;2022-09-09T04:16:03;100729.19;;;16.31;91.40
8705;BME280;4389;41.932;25.904;2022-09-09T04:18:30;100726.84;;;16.36;91.53
8705;BME280;4389;41.932;25.904;2022-09-09T04:20:58;100729.72;;;16.50;90.48
8705;BME280;4389;41.932;25.904;2022-09-09T04:23:25;100737.88;;;16.65;89.76
8705;BME280;4389;41.932;25.904;2022-09-09T04:25:55;100736.19;;;16.80;89.20
8705;BME280;4389;41.932;25.904;2022-09-09T04:28:23;100748.59;;;16.81;88.39
8705;BME280;4389;41.932;25.904;2022-09-09T04:30:51;100754.59;;;16.83;88.85
8705;BME280;4389;41.932;25.904;2022-09-09T04:33:18;100758.59;;;16.79;89.10
8705;BME280;4389;41.932;25.904;2022-09-09T04:35:46;100764.63;;;16.81;89.41
8705;BME280;4389;41.932;25.904;2022-09-09T04:38:14;100772.28;;;16.76;89.55
8705;BME280;4389;41.932;25.904;2022-09-09T04:40:42;100770.94;;;16.72;90.56
8705;BME280;4389;41.932;25.904;2022-09-09T04:43:11;100775.13;;;16.74;91.36
8705;BME280;4389;41.932;25.904;2022-09-09T04:45:39;100778.97;;;16.96;90.72
8705;BME280;4389;41.932;25.904;2022-09-09T04:48:08;100774.53;;;17.27;89.55
8705;BME280;4389;41.932;25.904;2022-09-09T04:50:35;100773.19;;;17.47;88.62
8705;BME280;4389;41.932;25.904;2022-09-09T04:53:03;100767.44;;;17.66;88.05
8705;BME280;4389;41.932;25.904;2022-09-09T04:55:30;100771.38;;;17.78;87.70
8705;BME280;4389;41.932;25.904;2022-09-09T04:57:57;100770.28;;;17.95;86.98
8705;BME280;4389;41.932;25.904;2022-09-09T05:00:25;100774.06;;;18.08;86.88
8705;BME280;4389;41.932;25.904;2022-09-09T05:02:52;100779.88;;;18.12;86.94
8705;BME280;4389;41.932;25.904;2022-09-09T05:05:19;100781.56;;;18.13;86.48
8705;BME280;4389;41.932;25.904;2022-09-09T05:07:46;100779.84;;;18.20;86.29
8705;BME280;4389;41.932;25.904;2022-09-09T05:10:14;100785.50;;;18.25;85.89
8705;BME280;4389;41.932;25.904;2022-09-09T05:12:42;100787.53;;;18.23;86.49
8705;BME280;4389;41.932;25.904;2022-09-09T05:15:09;100796.19;;;18.33;86.61
8705;BME280;4389;41.932;25.904;2022-09-09T05:17:38;100783.28;;;18.36;86.30
8705;BME280;4389;41.932;25.904;2022-09-09T05:20:06;100779.34;;;18.47;85.92
8705;BME280;4389;41.932;25.904;2022-09-09T05:22:33;100781.78;;;18.56;85.18
8705;BME280;4389;41.932;25.904;2022-09-09T05:25:00;100789.22;;;18.69;84.69
8705;BME280;4389;41.932;25.904;2022-09-09T05:27:27;100775.28;;;18.73;84.14
8705;BME280;4389;41.932;25.904;2022-09-09T05:29:56;100771.22;;;18.77;84.40
8705;BME280;4389;41.932;25.904;2022-09-09T05:32:23;100771.88;;;18.79;84.34
8705;BME280;4389;41.932;25.904;2022-09-09T05:34:51;100778.66;;;18.89;84.30
8705;BME280;4389;41.932;25.904;2022-09-09T05:37:18;100778.56;;;18.97;83.75
8705;BME280;4389;41.932;25.904;2022-09-09T05:39:45;100778.34;;;19.21;82.59
8705;BME280;4389;41.932;25.904;2022-09-09T05:42:12;100782.34;;;19.25;82.62
8705;BME280;4389;41.932;25.904;2022-09-09T05:44:39;100776.78;;;19.41;82.49
8705;BME280;4389;41.932;25.904;2022-09-09T05:47:07;100777.72;;;19.63;81.43
8705;BME280;4389;41.932;25.904;2022-09-09T05:49:35;100772.69;;;19.74;81.07
8705;BME280;4389;41.932;25.904;2022-09-09T05:52:03;100768.13;;;19.89;80.55
8705;BME280;4389;41.932;25.904;2022-09-09T05:54:31;100768.84;;;19.98;80.19
8705;BME280;4389;41.932;25.904;2022-09-09T05:56:58;100769.78;;;20.05;80.46
8705;BME280;4389;41.932;25.904;2022-09-09T05:59:26;100764.75;;;20.16;79.91
8705;BME280;4389;41.932;25.904;2022-09-09T06:01:53;100771.94;;;20.30;79.62
8705;BME280;4389;41.932;25.904;2022-09-09T06:04:20;100777.13;;;20.32;79.37
8705;BME280;4389;41.932;25.904;2022-09-09T06:06:51;100774.09;;;20.62;78.55
8705;BME280;4389;41.932;25.904;2022-09-09T06:09:20;100769.09;;;20.80;77.58
8705;BME280;4389;41.932;25.904;2022-09-09T06:11:46;100768.41;;;20.93;77.44
8705;BME280;4389;41.932;25.904;2022-09-09T06:14:16;100771.88;;;21.14;76.38
8705;BME280;4389;41.932;25.904;2022-09-09T06:16:44;100775.56;;;21.13;76.77
8705;BME280;4389;41.932;25.904;2022-09-09T06:19:13;100770.78;;;21.36;75.63
8705;BME280;4389;41.932;25.904;2022-09-09T06:21:41;100771.06;;;21.54;74.83
8705;BME280;4389;41.932;25.904;2022-09-09T06:24:08;100776.19;;;21.70;74.29
8705;BME280;4389;41.932;25.904;2022-09-09T06:26:38;100784.47;;;21.69;74.09
8705;BME280;4389;41.932;25.904;2022-09-09T06:29:06;100798.19;;;21.80;73.27
8705;BME280;4389;41.932;25.904;2022-09-09T06:31:34;100798.13;;;21.67;73.82
8705;BME280;4389;41.932;25.904;2022-09-09T06:34:04;100792.81;;;21.80;73.17
8705;BME280;4389;41.932;25.904;2022-09-09T06:36:33;100793.22;;;21.84;72.53
8705;BME280;4389;41.932;25.904;2022-09-09T06:39:02;100787.47;;;21.93;72.51
8705;BME280;4389;41.932;25.904;2022-09-09T06:41:30;100784.97;;;21.92;72.33
8705;BME280;4389;41.932;25.904;2022-09-09T06:43:59;100788.66;;;21.84;72.87
8705;BME280;4389;41.932;25.904;2022-09-09T06:46:28;100778.47;;;21.80;72.78
8705;BME280;4389;41.932;25.904;2022-09-09T06:48:57;100774.97;;;21.79;73.09
8705;BME280;4389;41.932;25.904;2022-09-09T06:51:26;100785.75;;;21.86;72.86
8705;BME280;4389;41.932;25.904;2022-09-09T06:53:55;100784.19;;;22.04;72.22
8705;BME280;4389;41.932;25.904;2022-09-09T06:56:24;100783.81;;;22.14;71.48
8705;BME280;4389;41.932;25.904;2022-09-09T06:58:52;100784.47;;;22.22;71.58
8705;BME280;4389;41.932;25.904;2022-09-09T07:01:22;100788.84;;;22.36;70.89
8705;BME280;4389;41.932;25.904;2022-09-09T07:03:51;100792.63;;;22.48;70.43
8705;BME280;4389;41.932;25.904;2022-09-09T07:06:20;100782.69;;;22.68;70.22
8705;BME280;4389;41.932;25.904;2022-09-09T07:08:51;100783.13;;;22.78;69.46
8705;BME280;4389;41.932;25.904;2022-09-09T07:11:19;100771.06;;;22.87;68.99
8705;BME280;4389;41.932;25.904;2022-09-09T07:13:46;100777.75;;;22.91;68.29
8705;BME280;4389;41.932;25.904;2022-09-09T07:16:15;100782.94;;;22.99;68.24
8705;BME280;4389;41.932;25.904;2022-09-09T07:18:44;100783.56;;;22.95;67.74
8705;BME280;4389;41.932;25.904;2022-09-09T07:21:12;100780.22;;;22.99;68.04
8705;BME280;4389;41.932;25.904;2022-09-09T07:23:40;100779.78;;;23.09;67.13
8705;BME280;4389;41.932;25.904;2022-09-09T07:26:11;100784.38;;;23.02;67.41
8705;BME280;4389;41.932;25.904;2022-09-09T07:28:39;100779.34;;;23.05;65.59
8705;BME280;4389;41.932;25.904;2022-09-09T07:31:10;100774.78;;;23.12;65.49
8705;BME280;4389;41.932;25.904;2022-09-09T07:33:40;100768.97;;;23.09;66.48
8705;BME280;4389;41.932;25.904;2022-09-09T07:36:12;100771.50;;;23.23;64.78
8705;BME280;4389;41.932;25.904;2022-09-09T07:38:40;100773.56;;;23.28;63.52
8705;BME280;4389;41.932;25.904;2022-09-09T07:41:11;100768.75;;;23.43;61.53
8705;BME280;4389;41.932;25.904;2022-09-09T07:43:38;100771.63;;;23.61;60.59
8705;BME280;4389;41.932;25.904;2022-09-09T07:46:06;100755.13;;;23.82;61.07
8705;BME280;4389;41.932;25.904;2022-09-09T07:48:33;100751.34;;;23.96;59.33
8705;BME280;4389;41.932;25.904;2022-09-09T07:51:06;100751.75;;;23.99;60.67
8705;BME280;4389;41.932;25.904;2022-09-09T07:53:35;100756.44;;;24.10;59.61
8705;BME280;4389;41.932;25.904;2022-09-09T07:56:05;100750.78;;;24.18;58.89
8705;BME280;4389;41.932;25.904;2022-09-09T07:58:33;100757.16;;;24.30;57.92
8705;BME280;4389;41.932;25.904;2022-09-09T08:00:59;100751.63;;;24.49;57.94
8705;BME280;4389;41.932;25.904;2022-09-09T08:03:26;100751.41;;;24.51;57.31
8705;BME280;4389;41.932;25.904;2022-09-09T08:06:00;100756.97;;;24.62;54.29
8705;BME280;4389;41.932;25.904;2022-09-09T08:08:28;100762.22;;;24.82;54.41
8705;BME280;4389;41.932;25.904;2022-09-09T08:11:03;100768.59;;;24.94;54.70
8705;BME280;4389;41.932;25.904;2022-09-09T08:13:30;100765.06;;;24.93;53.16
8705;BME280;4389;41.932;25.904;2022-09-09T08:16:04;100759.75;;;25.05;55.01
8705;BME280;4389;41.932;25.904;2022-09-09T08:18:31;100754.97;;;25.25;54.09
8705;BME280;4389;41.932;25.904;2022-09-09T08:20:58;100753.75;;;25.21;54.75
8705;BME280;4389;41.932;25.904;2022-09-09T08:23:30;100752.53;;;25.17;54.21
8705;BME280;4389;41.932;25.904;2022-09-09T08:26:05;100743.34;;;25.18;53.89
8705;BME280;4389;41.932;25.904;2022-09-09T08:28:32;100742.47;;;25.24;54.88
8705;BME280;4389;41.932;25.904;2022-09-09T08:31:05;100747.34;;;25.40;53.98
8705;BME280;4389;41.932;25.904;2022-09-09T08:33:33;100733.47;;;25.48;54.13
8705;BME280;4389;41.932;25.904;2022-09-09T08:35:59;100733.38;;;25.54;53.68
8705;BME280;4389;41.932;25.904;2022-09-09T08:38:26;100728.13;;;25.59;52.91
8705;BME280;4389;41.932;25.904;2022-09-09T08:40:55;100714.78;;;25.76;52.22
8705;BME280;4389;41.932;25.904;2022-09-09T08:43:28;100722.59;;;25.84;52.62
8705;BME280;4389;41.932;25.904;2022-09-09T08:46:02;100718.34;;;25.88;52.34
8705;BME280;4389;41.932;25.904;2022-09-09T08:48:43;100722.09;;;25.93;52.89
8705;BME280;4389;41.932;25.904;2022-09-09T08:51:12;100709.75;;;26.09;52.67
8705;BME280;4389;41.932;25.904;2022-09-09T08:53:42;100716.63;;;26.23;52.86
8705;BME280;4389;41.932;25.904;2022-09-09T08:56:12;100714.19;;;26.33;52.21
8705;BME280;4389;41.932;25.904;2022-09-09T08:58:45;100702.28;;;26.34;53.45
8705;BME280;4389;41.932;25.904;2022-09-09T09:01:47;100698.84;;;26.38;53.22
8705;BME280;4389;41.932;25.904;2022-09-09T09:04:52;100691.56;;;26.50;53.10
8705;BME280;4389;41.932;25.904;2022-09-09T09:07:33;100684.19;;;26.69;52.59
8705;BME280;4389;41.932;25.904;2022-09-09T09:10:08;100688.19;;;26.78;51.89
8705;BME280;4389;41.932;25.904;2022-09-09T09:12:40;100684.41;;;26.79;51.92
8705;BME280;4389;41.932;25.904;2022-09-09T09:15:16;100680.41;;;26.70;52.50
8705;BME280;4389;41.932;25.904;2022-09-09T09:17:44;100674.47;;;26.73;52.06
8705;BME280;4389;41.932;25.904;2022-09-09T09:20:12;100677.34;;;26.78;51.78
8705;BME280;4389;41.932;25.904;2022-09-09T09:22:47;100670.97;;;26.84;51.44
8705;BME280;4389;41.932;25.904;2022-09-09T09:25:18;100664.81;;;26.77;50.96
8705;BME280;4389;41.932;25.904;2022-09-09T09:27:52;100660.91;;;26.73;51.24
8705;BME280;4389;41.932;25.904;2022-09-09T09:30:31;100658.41;;;27.06;50.04
8705;BME280;4389;41.932;25.904;2022-09-09T09:33:03;100653.81;;;27.29;48.27
8705;BME280;4389;41.932;25.904;2022-09-09T09:35:32;100638.78;;;27.27;48.00
8705;BME280;4389;41.932;25.904;2022-09-09T09:37:59;100645.88;;;27.28;47.76
8705;BME280;4389;41.932;25.904;2022-09-09T09:40:28;100651.25;;;27.51;46.69
8705;BME280;4389;41.932;25.904;2022-09-09T09:42:57;100657.94;;;27.60;46.12
8705;BME280;4389;41.932;25.904;2022-09-09T09:45:33;100655.91;;;27.67;45.34
8705;BME280;4389;41.932;25.904;2022-09-09T09:48:03;100644.31;;;27.83;44.36
8705;BME280;4389;41.932;25.904;2022-09-09T09:50:31;100641.19;;;27.91;44.62
8705;BME280;4389;41.932;25.904;2022-09-09T09:53:02;100637.81;;;28.00;43.89
8705;BME280;4389;41.932;25.904;2022-09-09T09:55:31;100643.00;;;27.85;43.53
8705;BME280;4389;41.932;25.904;2022-09-09T09:58:03;100634.25;;;28.00;42.88
8705;BME280;4389;41.932;25.904;2022-09-09T10:00:32;100635.19;;;28.22;42.51
8705;BME280;4389;41.932;25.904;2022-09-09T10:03:00;100631.16;;;28.24;42.48
8705;BME280;4389;41.932;25.904;2022-09-09T10:05:29;100631.81;;;28.31;42.62
8705;BME280;4389;41.932;25.904;2022-09-09T10:08:05;100626.53;;;28.25;41.66
8705;BME280;4389;41.932;25.904;2022-09-09T10:10:44;100637.25;;;28.15;42.83
8705;BME280;4389;41.932;25.904;2022-09-09T10:13:18;100613.97;;;28.24;42.96
8705;BME280;4389;41.932;25.904;2022-09-09T10:16:01;100617.81;;;28.39;42.10
8705;BME280;4389;41.932;25.904;2022-09-09T10:18:44;100615.66;;;28.58;42.22
8705;BME280;4389;41.932;25.904;2022-09-09T10:21:26;100621.00;;;28.69;41.82
8705;BME280;4389;41.932;25.904;2022-09-09T10:24:14;100623.81;;;28.74;41.79
8705;BME280;4389;41.932;25.904;2022-09-09T10:26:51;100614.16;;;28.67;42.47
8705;BME280;4389;41.932;25.904;2022-09-09T10:29:32;100617.94;;;28.66;42.43
8705;BME280;4389;41.932;25.904;2022-09-09T10:32:22;100617.78;;;28.72;41.83
8705;BME280;4389;41.932;25.904;2022-09-09T10:34:56;100605.78;;;28.90;41.70
8705;BME280;4389;41.932;25.904;2022-09-09T10:37:36;100599.09;;;28.81;42.27
8705;BME280;4389;41.932;25.904;2022-09-09T10:40:21;100598.03;;;28.82;42.59
8705;BME280;4389;41.932;25.904;2022-09-09T10:42:52;100596.50;;;28.91;42.07
8705;BME280;4389;41.932;25.904;2022-09-09T10:45:30;100588.03;;;29.09;42.41
8705;BME280;4389;41.932;25.904;2022-09-09T10:48:18;100588.13;;;29.14;41.84
8705;BME280;4389;41.932;25.904;2022-09-09T10:50:55;100590.84;;;29.14;42.14
8705;BME280;4389;41.932;25.904;2022-09-09T10:53:35;100582.81;;;29.24;42.13
8705;BME280;4389;41.932;25.904;2022-09-09T10:56:06;100577.34;;;29.24;41.98
8705;BME280;4389;41.932;25.904;2022-09-09T10:58:39;100575.41;;;29.46;41.36
8705;BME280;4389;41.932;25.904;2022-09-09T11:01:13;100576.75;;;29.43;41.41
8705;BME280;4389;41.932;25.904;2022-09-09T11:03:47;100572.63;;;29.41;41.38
8705;BME280;4389;41.932;25.904;2022-09-09T11:06:20;100557.50;;;29.28;40.58
8705;BME280;4389;41.932;25.904;2022-09-09T11:08:48;100567.72;;;29.43;40.50
8705;BME280;4389;41.932;25.904;2022-09-09T11:11:19;100568.25;;;29.40;39.95
8705;BME280;4389;41.932;25.904;2022-09-09T11:13:54;100561.50;;;29.47;40.73
8705;BME280;4389;41.932;25.904;2022-09-09T11:16:26;100552.16;;;29.65;39.63
8705;BME280;4389;41.932;25.904;2022-09-09T11:19:00;100549.25;;;29.76;39.78
8705;BME280;4389;41.932;25.904;2022-09-09T11:21:30;100561.50;;;30.00;39.13
8705;BME280;4389;41.932;25.904;2022-09-09T11:24:00;100546.56;;;30.08;38.99
8705;BME280;4389;41.932;25.904;2022-09-09T11:26:33;100547.16;;;30.15;38.38
8705;BME280;4389;41.932;25.904;2022-09-09T11:29:15;100539.97;;;30.04;38.25
8705;BME280;4389;41.932;25.904;2022-09-09T11:31:47;100537.72;;;29.96;38.84
8705;BME280;4389;41.932;25.904;2022-09-09T11:34:25;100535.31;;;30.04;38.71
8705;BME280;4389;41.932;25.904;2022-09-09T11:40:00;100530.63;;;29.95;38.61
8705;BME280;4389;41.932;25.904;2022-09-09T11:42:34;100529.56;;;30.01;38.49
8705;BME280;4389;41.932;25.904;2022-09-09T11:45:09;100519.84;;;30.10;37.99
8705;BME280;4389;41.932;25.904;2022-09-09T11:47:38;100515.53;;;30.19;37.68
8705;BME280;4389;41.932;25.904;2022-09-09T11:50:26;100515.00;;;30.22;37.48
8705;BME280;4389;41.932;25.904;2022-09-09T11:53:20;100517.81;;;30.36;36.82
8705;BME280;4389;41.932;25.904;2022-09-09T11:56:12;100517.19;;;30.20;37.38
8705;BME280;4389;41.932;25.904;2022-09-09T11:58:53;100508.19;;;30.24;37.63
8705;BME280;4389;41.932;25.904;2022-09-09T12:01:29;100509.06;;;30.34;37.02
8705;BME280;4389;41.932;25.904;2022-09-09T12:04:16;100508.84;;;30.41;36.49
8705;BME280;4389;41.932;25.904;2022-09-09T12:06:50;100499.88;;;30.45;36.34
8705;BME280;4389;41.932;25.904;2022-09-09T12:09:29;100500.44;;;30.57;35.99
8705;BME280;4389;41.932;25.904;2022-09-09T12:12:20;100503.44;;;30.51;35.98
8705;BME280;4389;41.932;25.904;2022-09-09T12:14:56;100499.81;;;30.40;36.18
8705;BME280;4389;41.932;25.904;2022-09-09T12:17:26;100485.69;;;30.53;36.15
8705;BME280;4389;41.932;25.904;2022-09-09T12:20:03;100481.72;;;30.71;36.05
8705;BME280;4389;41.932;25.904;2022-09-09T12:22:39;100477.38;;;30.85;35.41
8705;BME280;4389;41.932;25.904;2022-09-09T12:25:18;100481.50;;;30.87;35.07
8705;BME280;4389;41.932;25.904;2022-09-09T12:28:00;100471.63;;;30.81;35.10
8705;BME280;4389;41.932;25.904;2022-09-09T12:30:31;100463.44;;;30.86;35.39
8705;BME280;4389;41.932;25.904;2022-09-09T12:33:02;100456.66;;;30.99;35.02
8705;BME280;4389;41.932;25.904;2022-09-09T12:35:29;100455.28;;;30.96;34.89
8705;BME280;4389;41.932;25.904;2022-09-09T12:38:00;100446.72;;;30.83;34.84
8705;BME280;4389;41.932;25.904;2022-09-09T12:40:30;100435.22;;;30.76;35.28
8705;BME280;4389;41.932;25.904;2022-09-09T12:42:58;100440.75;;;30.86;34.87
8705;BME280;4389;41.932;25.904;2022-09-09T12:45:29;100432.81;;;30.84;35.32
8705;BME280;4389;41.932;25.904;2022-09-09T12:47:59;100431.72;;;30.90;34.96
8705;BME280;4389;41.932;25.904;2022-09-09T12:50:29;100429.81;;;30.96;34.99
8705;BME280;4389;41.932;25.904;2022-09-09T12:53:00;100419.72;;;31.06;34.45
8705;BME280;4389;41.932;25.904;2022-09-09T12:55:31;100423.06;;;31.18;34.15
8705;BME280;4389;41.932;25.904;2022-09-09T12:57:59;100429.31;;;31.14;34.34
8705;BME280;4389;41.932;25.904;2022-09-09T13:00:30;100422.22;;;31.18;34.07
8705;BME280;4389;41.932;25.904;2022-09-09T13:02:58;100426.38;;;31.25;33.94
8705;BME280;4389;41.932;25.904;2022-09-09T13:05:27;100415.69;;;31.24;34.09
8705;BME280;4389;41.932;25.904;2022-09-09T13:08:02;100417.59;;;31.18;33.84
8705;BME280;4389;41.932;25.904;2022-09-09T13:10:33;100430.16;;;31.09;33.77
8705;BME280;4389;41.932;25.904;2022-09-09T13:13:05;100417.53;;;30.98;34.05
8705;BME280;4389;41.932;25.904;2022-09-09T13:15:39;100415.91;;;31.07;34.09
8705;BME280;4389;41.932;25.904;2022-09-09T13:18:12;100398.13;;;31.15;34.18
8705;BME280;4389;41.932;25.904;2022-09-09T13:20:46;100398.47;;;31.23;33.58
8705;BME280;4389;41.932;25.904;2022-09-09T13:23:15;100392.16;;;31.28;33.51
8705;BME280;4389;41.932;25.904;2022-09-09T13:25:53;100388.59;;;31.17;33.52